sensor_id;sensor_type;location;lat;lon;timestamp;temperature;humidity
47590;DHT22;33316;52.298;9.056;2022-12-07T00:01:23;5.20;94.30
47590;DHT22;33316;52.298;9.056;2022-12-07T00:03:52;5.30;94.30
47590;DHT22;33316;52.298;9.056;2022-12-07T00:06:20;5.30;94.30
47590;DHT22;33316;52.298;9.056;2022-12-07T00:08:47;5.30;94.30
47590;DHT22;33316;52.298;9.056;2022-12-07T00:11:16;5.30;94.30
47590;DHT22;33316;52.298;9.056;2022-12-07T00:13:44;5.30;94.30
47590;DHT22;33316;52.298;9.056;2022-12-07T00:16:12;5.30;94.30
47590;DHT22;33316;52.298;9.056;2022-12-07T00:18:40;5.30;94.30
47590;DHT22;33316;52.298;9.056;2022-12-07T00:21:10;5.30;94.30
47590;DHT22;33316;52.298;9.056;2022-12-07T00:23:39;5.30;94.30
47590;DHT22;33316;52.298;9.056;2022-12-07T00:26:06;5.30;94.30
47590;DHT22;33316;52.298;9.056;2022-12-07T00:28:34;5.30;94.30
47590;DHT22;33316;52.298;9.056;2022-12-07T00:31:02;5.30;94.30
47590;DHT22;33316;52.298;9.056;2022-12-07T00:33:29;5.30;94.30
47590;DHT22;33316;52.298;9.056;2022-12-07T00:35:56;5.30;94.70
47590;DHT22;33316;52.298;9.056;2022-12-07T00:38:23;5.30;94.30
47590;DHT22;33316;52.298;9.056;2022-12-07T00:40:56;5.40;94.40
47590;DHT22;33316;52.298;9.056;2022-12-07T00:43:23;5.40;94.30
47590;DHT22;33316;52.298;9.056;2022-12-07T00:45:49;5.40;94.30
47590;DHT22;33316;52.298;9.056;2022-12-07T00:48:17;5.40;94.30
47590;DHT22;33316;52.298;9.056;2022-12-07T00:50:43;5.40;94.30
47590;DHT22;33316;52.298;9.056;2022-12-07T00:53:10;5.40;94.30
47590;DHT22;33316;52.298;9.056;2022-12-07T00:55:37;5.40;94.30
47590;DHT22;33316;52.298;9.056;2022-12-07T00:58:05;5.40;94.30
47590;DHT22;33316;52.298;9.056;2022-12-07T01:00:33;5.40;94.30
47590;DHT22;33316;52.298;9.056;2022-12-07T01:03:01;5.40;94.30
47590;DHT22;33316;52.298;9.056;2022-12-07T01:05:28;5.40;94.30
47590;DHT22;33316;52.298;9.056;2022-12-07T01:07:54;5.40;94.40
47590;DHT22;33316;52.298;9.056;2022-12-07T01:10:21;5.40;94.40
47590;DHT22;33316;52.298;9.056;2022-12-07T01:12:48;5.40;94.40
47590;DHT22;33316;52.298;9.056;2022-12-07T01:15:17;5.40;94.40
47590;DHT22;33316;52.298;9.056;2022-12-07T01:17:43;5.40;94.40
47590;DHT22;33316;52.298;9.056;2022-12-07T01:20:11;5.40;94.40
47590;DHT22;33316;52.298;9.056;2022-12-07T01:22:39;5.40;94.40
47590;DHT22;33316;52.298;9.056;2022-12-07T01:25:07;5.40;94.40
47590;DHT22;33316;52.298;9.056;2022-12-07T01:27:34;5.40;94.30
47590;DHT22;33316;52.298;9.056;2022-12-07T01:30:04;5.40;94.30
47590;DHT22;33316;52.298;9.056;2022-12-07T01:32:33;5.40;94.40
47590;DHT22;33316;52.298;9.056;2022-12-07T01:35:00;5.40;94.40
47590;DHT22;33316;52.298;9.056;2022-12-07T01:37:27;5.40;94.40
47590;DHT22;33316;52.298;9.056;2022-12-07T01:39:53;5.40;94.40
47590;DHT22;33316;52.298;9.056;2022-12-07T01:42:20;5.40;94.40
47590;DHT22;33316;52.298;9.056;2022-12-07T01:47:55;5.40;94.40
47590;DHT22;33316;52.298;9.056;2022-12-07T01:50:26;5.40;94.40
47590;DHT22;33316;52.298;9.056;2022-12-07T01:52:54;5.40;94.40
47590;DHT22;33316;52.298;9.056;2022-12-07T01:55:23;5.40;94.40
47590;DHT22;33316;52.298;9.056;2022-12-07T01:57:52;5.40;94.40
47590;DHT22;33316;52.298;9.056;2022-12-07T02:00:19;5.50;94.50
47590;DHT22;33316;52.298;9.056;2022-12-07T02:02:53;5.40;94.40
47590;DHT22;33316;52.298;9.056;2022-12-07T02:05:21;5.40;94.40
47590;DHT22;33316;52.298;9.056;2022-12-07T02:07:49;5.40;94.50
47590;DHT22;33316;52.298;9.056;2022-12-07T02:10:19;5.50;94.50
47590;DHT22;33316;52.298;9.056;2022-12-07T02:12:48;5.40;94.50
47590;DHT22;33316;52.298;9.056;2022-12-07T02:15:17;5.40;94.50
47590;DHT22;33316;52.298;9.056;2022-12-07T02:17:50;5.40;94.50
47590;DHT22;33316;52.298;9.056;2022-12-07T02:20:28;5.40;94.50
47590;DHT22;33316;52.298;9.056;2022-12-07T02:23:23;5.40;94.50
47590;DHT22;33316;52.298;9.056;2022-12-07T02:26:23;5.40;94.50
47590;DHT22;33316;52.298;9.056;2022-12-07T02:29:10;5.40;94.40
47590;DHT22;33316;52.298;9.056;2022-12-07T02:31:43;5.40;94.40
47590;DHT22;33316;52.298;9.056;2022-12-07T02:34:21;5.40;94.40
47590;DHT22;33316;52.298;9.056;2022-12-07T02:36:56;5.40;94.40
47590;DHT22;33316;52.298;9.056;2022-12-07T02:39:30;5.30;94.30
47590;DHT22;33316;52.298;9.056;2022-12-07T02:42:02;5.30;94.30
47590;DHT22;33316;52.298;9.056;2022-12-07T02:44:36;5.30;94.30
47590;DHT22;33316;52.298;9.056;2022-12-07T02:47:05;5.30;94.30
47590;DHT22;33316;52.298;9.056;2022-12-07T02:49:34;5.30;94.30
47590;DHT22;33316;52.298;9.056;2022-12-07T02:52:02;5.20;94.30
47590;DHT22;33316;52.298;9.056;2022-12-07T02:54:29;5.30;94.30
47590;DHT22;33316;52.298;9.056;2022-12-07T02:57:02;5.30;94.60
47590;DHT22;33316;52.298;9.056;2022-12-07T02:59:44;5.20;94.20
47590;DHT22;33316;52.298;9.056;2022-12-07T03:02:20;5.20;94.10
47590;DHT22;33316;52.298;9.056;2022-12-07T03:04:55;5.20;94.10
47590;DHT22;33316;52.298;9.056;2022-12-07T03:07:31;5.10;94.10
47590;DHT22;33316;52.298;9.056;2022-12-07T03:10:08;5.10;94.00
47590;DHT22;33316;52.298;9.056;2022-12-07T03:12:42;5.10;94.10
47590;DHT22;33316;52.298;9.056;2022-12-07T03:15:15;5.10;94.10
47590;DHT22;33316;52.298;9.056;2022-12-07T03:17:44;5.10;94.00
47590;DHT22;33316;52.298;9.056;2022-12-07T03:20:14;5.10;94.00
47590;DHT22;33316;52.298;9.056;2022-12-07T03:22:43;5.00;94.00
47590;DHT22;33316;52.298;9.056;2022-12-07T03:25:14;5.10;94.10
47590;DHT22;33316;52.298;9.056;2022-12-07T03:27:44;5.00;94.00
47590;DHT22;33316;52.298;9.056;2022-12-07T03:30:16;5.10;94.00
47590;DHT22;33316;52.298;9.056;2022-12-07T03:32:47;5.00;94.00
47590;DHT22;33316;52.298;9.056;2022-12-07T03:35:18;5.00;94.00
47590;DHT22;33316;52.298;9.056;2022-12-07T03:37:47;5.00;94.00
47590;DHT22;33316;52.298;9.056;2022-12-07T03:40:19;5.00;94.00
47590;DHT22;33316;52.298;9.056;2022-12-07T03:42:50;5.00;94.00
47590;DHT22;33316;52.298;9.056;2022-12-07T03:45:20;5.00;93.90
47590;DHT22;33316;52.298;9.056;2022-12-07T03:47:57;5.00;93.90
47590;DHT22;33316;52.298;9.056;2022-12-07T03:50:31;5.00;93.90
47590;DHT22;33316;52.298;9.056;2022-12-07T03:53:05;5.00;93.90
47590;DHT22;33316;52.298;9.056;2022-12-07T03:55:37;4.90;93.90
47590;DHT22;33316;52.298;9.056;2022-12-07T03:58:08;4.90;93.90
47590;DHT22;33316;52.298;9.056;2022-12-07T04:00:37;4.90;93.90
47590;DHT22;33316;52.298;9.056;2022-12-07T04:03:04;4.90;93.80
47590;DHT22;33316;52.298;9.056;2022-12-07T04:05:31;4.90;93.80
47590;DHT22;33316;52.298;9.056;2022-12-07T04:07:58;4.90;93.80
47590;DHT22;33316;52.298;9.056;2022-12-07T04:10:25;4.90;93.80
47590;DHT22;33316;52.298;9.056;2022-12-07T04:12:51;4.90;93.80
47590;DHT22;33316;52.298;9.056;2022-12-07T04:15:18;4.90;93.80
47590;DHT22;33316;52.298;9.056;2022-12-07T04:17:46;4.90;93.80
47590;DHT22;33316;52.298;9.056;2022-12-07T04:20:13;4.90;93.80
47590;DHT22;33316;52.298;9.056;2022-12-07T04:22:40;4.90;93.80
47590;DHT22;33316;52.298;9.056;2022-12-07T04:25:07;4.90;93.80
47590;DHT22;33316;52.298;9.056;2022-12-07T04:27:34;4.90;93.80
47590;DHT22;33316;52.298;9.056;2022-12-07T04:30:00;4.90;93.80
47590;DHT22;33316;52.298;9.056;2022-12-07T04:32:27;4.90;93.80
47590;DHT22;33316;52.298;9.056;2022-12-07T04:34:55;4.90;93.80
47590;DHT22;33316;52.298;9.056;2022-12-07T04:37:22;4.90;93.80
47590;DHT22;33316;52.298;9.056;2022-12-07T04:39:49;4.90;93.80
47590;DHT22;33316;52.298;9.056;2022-12-07T04:42:16;4.90;93.80
47590;DHT22;33316;52.298;9.056;2022-12-07T04:44:43;4.90;93.80
47590;DHT22;33316;52.298;9.056;2022-12-07T04:47:10;4.90;93.70
47590;DHT22;33316;52.298;9.056;2022-12-07T04:49:36;4.90;93.70
47590;DHT22;33316;52.298;9.056;2022-12-07T04:52:05;4.90;93.70
47590;DHT22;33316;52.298;9.056;2022-12-07T04:54:31;4.90;93.70
47590;DHT22;33316;52.298;9.056;2022-12-07T04:56:58;4.90;94.00
47590;DHT22;33316;52.298;9.056;2022-12-07T04:59:25;4.90;93.60
47590;DHT22;33316;52.298;9.056;2022-12-07T05:01:52;4.90;93.60
47590;DHT22;33316;52.298;9.056;2022-12-07T05:04:19;4.90;93.50
47590;DHT22;33316;52.298;9.056;2022-12-07T05:06:46;4.90;93.50
47590;DHT22;33316;52.298;9.056;2022-12-07T05:09:14;4.90;93.40
47590;DHT22;33316;52.298;9.056;2022-12-07T05:11:40;4.90;93.40
47590;DHT22;33316;52.298;9.056;2022-12-07T05:14:11;4.90;93.40
47590;DHT22;33316;52.298;9.056;2022-12-07T05:16:39;4.90;93.40
47590;DHT22;33316;52.298;9.056;2022-12-07T05:19:07;4.90;93.40
47590;DHT22;33316;52.298;9.056;2022-12-07T05:21:34;4.90;93.30
47590;DHT22;33316;52.298;9.056;2022-12-07T05:24:01;4.90;93.30
47590;DHT22;33316;52.298;9.056;2022-12-07T05:26:29;4.90;93.30
47590;DHT22;33316;52.298;9.056;2022-12-07T05:28:57;4.90;93.30
47590;DHT22;33316;52.298;9.056;2022-12-07T05:31:25;4.80;93.30
47590;DHT22;33316;52.298;9.056;2022-12-07T05:33:52;4.80;93.30
47590;DHT22;33316;52.298;9.056;2022-12-07T05:36:19;4.90;93.30
47590;DHT22;33316;52.298;9.056;2022-12-07T05:38:46;4.80;93.30
47590;DHT22;33316;52.298;9.056;2022-12-07T05:41:15;4.80;93.30
47590;DHT22;33316;52.298;9.056;2022-12-07T05:43:57;4.80;93.30
47590;DHT22;33316;52.298;9.056;2022-12-07T05:46:23;4.90;93.30
47590;DHT22;33316;52.298;9.056;2022-12-07T05:48:50;4.80;93.30
47590;DHT22;33316;52.298;9.056;2022-12-07T05:51:17;4.80;93.30
47590;DHT22;33316;52.298;9.056;2022-12-07T05:53:44;4.80;93.20
47590;DHT22;33316;52.298;9.056;2022-12-07T05:56:11;4.80;93.20
47590;DHT22;33316;52.298;9.056;2022-12-07T05:58:38;4.80;93.30
47590;DHT22;33316;52.298;9.056;2022-12-07T06:01:23;4.80;93.20
47590;DHT22;33316;52.298;9.056;2022-12-07T06:03:50;4.80;93.20
47590;DHT22;33316;52.298;9.056;2022-12-07T06:06:17;4.80;93.20
47590;DHT22;33316;52.298;9.056;2022-12-07T06:08:44;4.80;93.20
47590;DHT22;33316;52.298;9.056;2022-12-07T06:11:11;4.80;93.20
47590;DHT22;33316;52.298;9.056;2022-12-07T06:13:57;4.80;93.20
47590;DHT22;33316;52.298;9.056;2022-12-07T06:16:25;4.80;93.20
47590;DHT22;33316;52.298;9.056;2022-12-07T06:18:52;4.90;93.20
47590;DHT22;33316;52.298;9.056;2022-12-07T06:21:19;4.90;93.20
47590;DHT22;33316;52.298;9.056;2022-12-07T06:23:46;4.90;93.20
47590;DHT22;33316;52.298;9.056;2022-12-07T06:26:13;4.90;93.20
47590;DHT22;33316;52.298;9.056;2022-12-07T06:28:40;4.90;93.20
47590;DHT22;33316;52.298;9.056;2022-12-07T06:31:07;4.80;93.20
47590;DHT22;33316;52.298;9.056;2022-12-07T06:33:35;4.80;93.20
47590;DHT22;33316;52.298;9.056;2022-12-07T06:36:02;4.80;93.20
47590;DHT22;33316;52.298;9.056;2022-12-07T06:38:29;4.80;93.20
47590;DHT22;33316;52.298;9.056;2022-12-07T06:40:56;4.80;93.20
47590;DHT22;33316;52.298;9.056;2022-12-07T06:43:23;4.80;93.20
47590;DHT22;33316;52.298;9.056;2022-12-07T06:45:49;4.80;93.20
47590;DHT22;33316;52.298;9.056;2022-12-07T06:48:16;4.80;93.20
47590;DHT22;33316;52.298;9.056;2022-12-07T06:50:45;4.80;93.20
47590;DHT22;33316;52.298;9.056;2022-12-07T06:53:12;4.80;93.20
47590;DHT22;33316;52.298;9.056;2022-12-07T06:55:39;4.80;93.20
47590;DHT22;33316;52.298;9.056;2022-12-07T06:58:06;4.80;93.20
47590;DHT22;33316;52.298;9.056;2022-12-07T07:00:32;4.80;93.20
47590;DHT22;33316;52.298;9.056;2022-12-07T07:03:00;4.80;93.20
47590;DHT22;33316;52.298;9.056;2022-12-07T07:05:27;4.80;93.20
47590;DHT22;33316;52.298;9.056;2022-12-07T07:07:55;4.80;93.20
47590;DHT22;33316;52.298;9.056;2022-12-07T07:10:22;4.80;93.30
47590;DHT22;33316;52.298;9.056;2022-12-07T07:12:48;4.80;93.30
47590;DHT22;33316;52.298;9.056;2022-12-07T07:15:15;4.80;93.30
47590;DHT22;33316;52.298;9.056;2022-12-07T07:17:42;4.80;93.30
47590;DHT22;33316;52.298;9.056;2022-12-07T07:20:10;4.80;93.30
47590;DHT22;33316;52.298;9.056;2022-12-07T07:22:37;4.80;93.30
47590;DHT22;33316;52.298;9.056;2022-12-07T07:25:06;4.80;93.30
47590;DHT22;33316;52.298;9.056;2022-12-07T07:27:33;4.70;93.20
47590;DHT22;33316;52.298;9.056;2022-12-07T07:29:59;4.70;93.20
47590;DHT22;33316;52.298;9.056;2022-12-07T07:32:26;4.80;93.20
47590;DHT22;33316;52.298;9.056;2022-12-07T07:34:53;4.70;93.20
47590;DHT22;33316;52.298;9.056;2022-12-07T07:37:20;4.70;93.20
47590;DHT22;33316;52.298;9.056;2022-12-07T07:39:47;4.70;93.20
47590;DHT22;33316;52.298;9.056;2022-12-07T07:42:15;4.70;93.20
47590;DHT22;33316;52.298;9.056;2022-12-07T07:44:42;4.80;93.20
47590;DHT22;33316;52.298;9.056;2022-12-07T07:47:08;4.70;93.20
47590;DHT22;33316;52.298;9.056;2022-12-07T07:49:35;4.70;93.20
47590;DHT22;33316;52.298;9.056;2022-12-07T07:52:02;4.70;93.20
47590;DHT22;33316;52.298;9.056;2022-12-07T07:54:29;4.70;93.20
47590;DHT22;33316;52.298;9.056;2022-12-07T07:56:55;4.70;93.20
47590;DHT22;33316;52.298;9.056;2022-12-07T07:59:24;4.70;93.10
47590;DHT22;33316;52.298;9.056;2022-12-07T08:01:51;4.70;93.10
47590;DHT22;33316;52.298;9.056;2022-12-07T08:04:18;4.70;93.20
47590;DHT22;33316;52.298;9.056;2022-12-07T08:06:44;4.70;93.10
47590;DHT22;33316;52.298;9.056;2022-12-07T08:09:12;4.70;93.10
47590;DHT22;33316;52.298;9.056;2022-12-07T08:11:38;4.70;93.10
47590;DHT22;33316;52.298;9.056;2022-12-07T08:14:05;4.80;93.10
47590;DHT22;33316;52.298;9.056;2022-12-07T08:16:33;4.70;93.10
47590;DHT22;33316;52.298;9.056;2022-12-07T08:19:00;4.70;93.10
47590;DHT22;33316;52.298;9.056;2022-12-07T08:21:27;4.70;93.10
47590;DHT22;33316;52.298;9.056;2022-12-07T08:23:54;4.70;93.10
47590;DHT22;33316;52.298;9.056;2022-12-07T08:26:20;4.80;93.20
47590;DHT22;33316;52.298;9.056;2022-12-07T08:28:47;4.80;93.20
47590;DHT22;33316;52.298;9.056;2022-12-07T08:31:15;4.70;93.10
47590;DHT22;33316;52.298;9.056;2022-12-07T08:33:45;4.80;93.10
47590;DHT22;33316;52.298;9.056;2022-12-07T08:36:12;4.70;93.10
47590;DHT22;33316;52.298;9.056;2022-12-07T08:38:40;4.80;93.20
47590;DHT22;33316;52.298;9.056;2022-12-07T08:41:08;4.80;93.10
47590;DHT22;33316;52.298;9.056;2022-12-07T08:43:35;4.80;93.10
47590;DHT22;33316;52.298;9.056;2022-12-07T08:46:07;4.80;93.10
47590;DHT22;33316;52.298;9.056;2022-12-07T08:48:39;4.80;93.20
47590;DHT22;33316;52.298;9.056;2022-12-07T08:51:08;4.80;93.20
47590;DHT22;33316;52.298;9.056;2022-12-07T08:53:37;4.80;93.20
47590;DHT22;33316;52.298;9.056;2022-12-07T08:56:05;4.80;93.20
47590;DHT22;33316;52.298;9.056;2022-12-07T08:58:32;4.80;93.20
47590;DHT22;33316;52.298;9.056;2022-12-07T09:00:59;4.90;93.20
47590;DHT22;33316;52.298;9.056;2022-12-07T09:03:26;4.90;93.20
47590;DHT22;33316;52.298;9.056;2022-12-07T09:05:53;4.90;93.20
47590;DHT22;33316;52.298;9.056;2022-12-07T09:08:25;4.90;93.20
47590;DHT22;33316;52.298;9.056;2022-12-07T09:10:53;4.90;93.20
47590;DHT22;33316;52.298;9.056;2022-12-07T09:13:19;4.90;93.60
47590;DHT22;33316;52.298;9.056;2022-12-07T09:15:46;4.90;93.20
47590;DHT22;33316;52.298;9.056;2022-12-07T09:18:13;4.90;93.20
47590;DHT22;33316;52.298;9.056;2022-12-07T09:20:40;4.90;93.30
47590;DHT22;33316;52.298;9.056;2022-12-07T09:23:06;4.90;93.30
47590;DHT22;33316;52.298;9.056;2022-12-07T09:25:35;4.90;93.30
47590;DHT22;33316;52.298;9.056;2022-12-07T09:28:02;4.90;93.30
47590;DHT22;33316;52.298;9.056;2022-12-07T09:30:29;5.00;93.30
47590;DHT22;33316;52.298;9.056;2022-12-07T09:32:56;5.00;93.30
47590;DHT22;33316;52.298;9.056;2022-12-07T09:35:25;5.00;93.30
47590;DHT22;33316;52.298;9.056;2022-12-07T09:37:53;5.00;93.30
47590;DHT22;33316;52.298;9.056;2022-12-07T09:40:21;5.00;93.30
47590;DHT22;33316;52.298;9.056;2022-12-07T09:42:52;5.00;93.30
47590;DHT22;33316;52.298;9.056;2022-12-07T09:45:22;5.10;93.30
47590;DHT22;33316;52.298;9.056;2022-12-07T09:47:50;5.10;93.40
47590;DHT22;33316;52.298;9.056;2022-12-07T09:50:20;5.20;93.40
47590;DHT22;33316;52.298;9.056;2022-12-07T09:52:48;5.20;93.40
47590;DHT22;33316;52.298;9.056;2022-12-07T09:55:18;5.20;93.40
47590;DHT22;33316;52.298;9.056;2022-12-07T09:57:46;5.20;93.40
47590;DHT22;33316;52.298;9.056;2022-12-07T10:00:16;5.20;93.40
47590;DHT22;33316;52.298;9.056;2022-12-07T10:02:47;5.20;93.30
47590;DHT22;33316;52.298;9.056;2022-12-07T10:05:19;5.30;93.20
47590;DHT22;33316;52.298;9.056;2022-12-07T10:07:47;5.20;93.20
47590;DHT22;33316;52.298;9.056;2022-12-07T10:10:18;5.30;93.20
47590;DHT22;33316;52.298;9.056;2022-12-07T10:12:56;5.30;93.10
47590;DHT22;33316;52.298;9.056;2022-12-07T10:15:41;5.30;93.10
47590;DHT22;33316;52.298;9.056;2022-12-07T10:18:19;5.40;93.10
47590;DHT22;33316;52.298;9.056;2022-12-07T10:20:46;5.40;93.00
47590;DHT22;33316;52.298;9.056;2022-12-07T10:23:16;5.40;92.90
47590;DHT22;33316;52.298;9.056;2022-12-07T10:25:44;5.40;92.90
47590;DHT22;33316;52.298;9.056;2022-12-07T10:28:14;5.40;92.80
47590;DHT22;33316;52.298;9.056;2022-12-07T10:30:56;5.40;92.80
47590;DHT22;33316;52.298;9.056;2022-12-07T10:33:35;5.40;92.80
47590;DHT22;33316;52.298;9.056;2022-12-07T10:36:17;5.40;92.80
47590;DHT22;33316;52.298;9.056;2022-12-07T10:38:46;5.40;92.70
47590;DHT22;33316;52.298;9.056;2022-12-07T10:41:14;5.40;92.70
47590;DHT22;33316;52.298;9.056;2022-12-07T10:43:47;5.40;92.70
47590;DHT22;33316;52.298;9.056;2022-12-07T10:46:32;5.40;92.70
47590;DHT22;33316;52.298;9.056;2022-12-07T10:52:14;5.50;92.70
47590;DHT22;33316;52.298;9.056;2022-12-07T10:54:51;5.50;92.60
47590;DHT22;33316;52.298;9.056;2022-12-07T10:57:32;5.50;92.60
47590;DHT22;33316;52.298;9.056;2022-12-07T11:00:13;5.50;92.60
47590;DHT22;33316;52.298;9.056;2022-12-07T11:03:03;5.50;92.50
47590;DHT22;33316;52.298;9.056;2022-12-07T11:05:40;5.50;92.50
47590;DHT22;33316;52.298;9.056;2022-12-07T11:08:15;5.60;92.50
47590;DHT22;33316;52.298;9.056;2022-12-07T11:10:50;5.60;92.50
47590;DHT22;33316;52.298;9.056;2022-12-07T11:13:28;5.60;92.40
47590;DHT22;33316;52.298;9.056;2022-12-07T11:16:09;5.60;92.30
47590;DHT22;33316;52.298;9.056;2022-12-07T11:18:52;5.60;92.20
47590;DHT22;33316;52.298;9.056;2022-12-07T11:21:29;5.60;92.20
47590;DHT22;33316;52.298;9.056;2022-12-07T11:24:01;5.60;92.20
47590;DHT22;33316;52.298;9.056;2022-12-07T11:26:42;5.70;92.20
47590;DHT22;33316;52.298;9.056;2022-12-07T11:29:24;5.70;92.20
47590;DHT22;33316;52.298;9.056;2022-12-07T11:32:01;5.60;92.10
47590;DHT22;33316;52.298;9.056;2022-12-07T11:34:39;5.60;92.10
47590;DHT22;33316;52.298;9.056;2022-12-07T11:37:13;5.60;92.00
47590;DHT22;33316;52.298;9.056;2022-12-07T11:39:44;5.60;92.00
47590;DHT22;33316;52.298;9.056;2022-12-07T11:42:16;5.60;92.10
47590;DHT22;33316;52.298;9.056;2022-12-07T11:44:52;5.60;92.10
47590;DHT22;33316;52.298;9.056;2022-12-07T11:47:25;5.60;92.10
47590;DHT22;33316;52.298;9.056;2022-12-07T11:50:01;5.70;92.10
47590;DHT22;33316;52.298;9.056;2022-12-07T11:52:36;5.60;92.00
47590;DHT22;33316;52.298;9.056;2022-12-07T11:55:18;5.70;92.10
47590;DHT22;33316;52.298;9.056;2022-12-07T11:57:47;5.70;92.00
47590;DHT22;33316;52.298;9.056;2022-12-07T12:00:17;5.70;92.10
47590;DHT22;33316;52.298;9.056;2022-12-07T12:02:51;5.70;92.10
47590;DHT22;33316;52.298;9.056;2022-12-07T12:05:24;5.70;92.10
47590;DHT22;33316;52.298;9.056;2022-12-07T12:07:55;5.70;92.10
47590;DHT22;33316;52.298;9.056;2022-12-07T12:10:34;5.80;92.10
47590;DHT22;33316;52.298;9.056;2022-12-07T12:13:16;5.80;92.00
47590;DHT22;33316;52.298;9.056;2022-12-07T12:16:06;5.80;92.00
47590;DHT22;33316;52.298;9.056;2022-12-07T12:18:48;5.80;91.90
47590;DHT22;33316;52.298;9.056;2022-12-07T12:21:25;5.80;91.80
47590;DHT22;33316;52.298;9.056;2022-12-07T12:23:57;5.80;91.80
47590;DHT22;33316;52.298;9.056;2022-12-07T12:26:27;5.80;91.80
47590;DHT22;33316;52.298;9.056;2022-12-07T12:28:57;5.80;91.80
47590;DHT22;33316;52.298;9.056;2022-12-07T12:31:34;5.80;91.70
47590;DHT22;33316;52.298;9.056;2022-12-07T12:34:04;5.80;91.70
47590;DHT22;33316;52.298;9.056;2022-12-07T12:36:46;5.90;91.70
47590;DHT22;33316;52.298;9.056;2022-12-07T12:39:14;5.90;91.70
47590;DHT22;33316;52.298;9.056;2022-12-07T12:41:58;5.90;91.60
47590;DHT22;33316;52.298;9.056;2022-12-07T12:47:58;5.90;91.40
47590;DHT22;33316;52.298;9.056;2022-12-07T12:50:30;6.00;91.30
47590;DHT22;33316;52.298;9.056;2022-12-07T12:53:19;5.90;91.30
47590;DHT22;33316;52.298;9.056;2022-12-07T12:58:46;5.90;91.10
47590;DHT22;33316;52.298;9.056;2022-12-07T13:01:44;5.90;91.10
47590;DHT22;33316;52.298;9.056;2022-12-07T13:04:24;5.90;91.00
47590;DHT22;33316;52.298;9.056;2022-12-07T13:06:52;5.90;90.90
47590;DHT22;33316;52.298;9.056;2022-12-07T13:09:23;5.90;91.00
47590;DHT22;33316;52.298;9.056;2022-12-07T13:11:58;5.90;90.90
47590;DHT22;33316;52.298;9.056;2022-12-07T13:14:53;5.90;90.90
47590;DHT22;33316;52.298;9.056;2022-12-07T13:17:55;5.90;90.80
47590;DHT22;33316;52.298;9.056;2022-12-07T13:20:46;5.90;90.80
47590;DHT22;33316;52.298;9.056;2022-12-07T13:23:18;6.00;90.70
47590;DHT22;33316;52.298;9.056;2022-12-07T13:25:58;6.00;90.70
47590;DHT22;33316;52.298;9.056;2022-12-07T13:28:33;5.90;90.70
47590;DHT22;33316;52.298;9.056;2022-12-07T13:31:09;6.00;90.60
47590;DHT22;33316;52.298;9.056;2022-12-07T13:33:37;6.00;90.70
47590;DHT22;33316;52.298;9.056;2022-12-07T13:36:08;5.90;90.70
47590;DHT22;33316;52.298;9.056;2022-12-07T13:38:49;6.00;90.70
47590;DHT22;33316;52.298;9.056;2022-12-07T13:41:19;5.90;90.50
47590;DHT22;33316;52.298;9.056;2022-12-07T13:43:51;6.00;90.50
47590;DHT22;33316;52.298;9.056;2022-12-07T13:46:20;5.90;90.50
47590;DHT22;33316;52.298;9.056;2022-12-07T13:48:50;5.90;90.60
47590;DHT22;33316;52.298;9.056;2022-12-07T13:51:20;5.90;90.60
47590;DHT22;33316;52.298;9.056;2022-12-07T13:53:49;5.90;91.00
47590;DHT22;33316;52.298;9.056;2022-12-07T13:56:18;5.90;90.70
47590;DHT22;33316;52.298;9.056;2022-12-07T13:58:45;5.90;90.70
47590;DHT22;33316;52.298;9.056;2022-12-07T14:01:11;5.90;90.70
47590;DHT22;33316;52.298;9.056;2022-12-07T14:03:39;5.90;90.70
47590;DHT22;33316;52.298;9.056;2022-12-07T14:06:23;5.90;90.70
47590;DHT22;33316;52.298;9.056;2022-12-07T14:09:14;5.90;90.70
47590;DHT22;33316;52.298;9.056;2022-12-07T14:11:45;5.90;90.70
47590;DHT22;33316;52.298;9.056;2022-12-07T14:14:15;5.90;90.70
47590;DHT22;33316;52.298;9.056;2022-12-07T14:16:43;5.90;90.70
47590;DHT22;33316;52.298;9.056;2022-12-07T14:19:41;5.90;90.60
47590;DHT22;33316;52.298;9.056;2022-12-07T14:22:19;5.90;90.60
47590;DHT22;33316;52.298;9.056;2022-12-07T14:24:46;5.90;90.70
47590;DHT22;33316;52.298;9.056;2022-12-07T14:27:23;5.80;90.70
47590;DHT22;33316;52.298;9.056;2022-12-07T14:29:51;5.90;90.70
47590;DHT22;33316;52.298;9.056;2022-12-07T14:32:22;5.80;90.70
47590;DHT22;33316;52.298;9.056;2022-12-07T14:34:55;5.90;90.70
47590;DHT22;33316;52.298;9.056;2022-12-07T14:37:22;5.90;90.80
47590;DHT22;33316;52.298;9.056;2022-12-07T14:39:48;5.80;90.80
47590;DHT22;33316;52.298;9.056;2022-12-07T14:42:17;5.80;90.80
47590;DHT22;33316;52.298;9.056;2022-12-07T14:44:46;5.80;90.80
47590;DHT22;33316;52.298;9.056;2022-12-07T14:47:12;5.80;90.80
47590;DHT22;33316;52.298;9.056;2022-12-07T14:49:39;5.80;90.70
47590;DHT22;33316;52.298;9.056;2022-12-07T14:52:11;5.80;90.70
47590;DHT22;33316;52.298;9.056;2022-12-07T14:54:41;5.80;90.70
47590;DHT22;33316;52.298;9.056;2022-12-07T14:57:09;5.80;90.70
47590;DHT22;33316;52.298;9.056;2022-12-07T14:59:36;5.80;90.70
47590;DHT22;33316;52.298;9.056;2022-12-07T15:02:04;5.80;90.70
47590;DHT22;33316;52.298;9.056;2022-12-07T15:04:31;5.80;90.70
47590;DHT22;33316;52.298;9.056;2022-12-07T15:07:00;5.80;90.70
47590;DHT22;33316;52.298;9.056;2022-12-07T15:09:27;5.70;90.60
47590;DHT22;33316;52.298;9.056;2022-12-07T15:11:54;5.70;90.60
47590;DHT22;33316;52.298;9.056;2022-12-07T15:14:21;5.70;90.70
47590;DHT22;33316;52.298;9.056;2022-12-07T15:16:48;5.70;90.60
47590;DHT22;33316;52.298;9.056;2022-12-07T15:19:17;5.70;90.60
47590;DHT22;33316;52.298;9.056;2022-12-07T15:21:45;5.70;90.50
47590;DHT22;33316;52.298;9.056;2022-12-07T15:24:12;5.70;90.60
47590;DHT22;33316;52.298;9.056;2022-12-07T15:26:40;5.70;90.60
47590;DHT22;33316;52.298;9.056;2022-12-07T15:29:07;5.70;90.60
47590;DHT22;33316;52.298;9.056;2022-12-07T15:31:34;5.60;90.50
47590;DHT22;33316;52.298;9.056;2022-12-07T15:34:02;5.60;90.50
47590;DHT22;33316;52.298;9.056;2022-12-07T15:36:32;5.60;90.60
47590;DHT22;33316;52.298;9.056;2022-12-07T15:38:59;5.60;90.60
47590;DHT22;33316;52.298;9.056;2022-12-07T15:41:26;5.60;90.60
47590;DHT22;33316;52.298;9.056;2022-12-07T15:43:53;5.60;90.60
47590;DHT22;33316;52.298;9.056;2022-12-07T15:46:39;5.60;90.60
47590;DHT22;33316;52.298;9.056;2022-12-07T15:49:10;5.60;90.50
47590;DHT22;33316;52.298;9.056;2022-12-07T15:51:39;5.50;90.50
47590;DHT22;33316;52.298;9.056;2022-12-07T15:54:05;5.50;90.50
47590;DHT22;33316;52.298;9.056;2022-12-07T15:56:32;5.50;90.50
47590;DHT22;33316;52.298;9.056;2022-12-07T15:58:59;5.50;90.60
47590;DHT22;33316;52.298;9.056;2022-12-07T16:01:26;5.40;90.50
47590;DHT22;33316;52.298;9.056;2022-12-07T16:03:53;5.40;90.60
47590;DHT22;33316;52.298;9.056;2022-12-07T16:06:19;5.40;90.60
47590;DHT22;33316;52.298;9.056;2022-12-07T16:08:47;5.40;90.60
47590;DHT22;33316;52.298;9.056;2022-12-07T16:11:15;5.40;90.70
47590;DHT22;33316;52.298;9.056;2022-12-07T16:13:41;5.40;90.70
47590;DHT22;33316;52.298;9.056;2022-12-07T16:16:11;5.40;90.70
47590;DHT22;33316;52.298;9.056;2022-12-07T16:18:39;5.40;91.10